sensor_id;sensor_type;location;lat;lon;timestamp;P1;durP1;ratioP1;P2;durP2;ratioP2
7031;SDS011;3557;48.880;8.328;2023-01-08T00:01:13;4.23;;;3.57;;
7031;SDS011;3557;48.880;8.328;2023-01-08T00:03:40;5.07;;;2.97;;
7031;SDS011;3557;48.880;8.328;2023-01-08T00:06:10;4.73;;;3.10;;
7031;SDS011;3557;48.880;8.328;2023-01-08T00:08:39;4.73;;;3.30;;
7031;SDS011;3557;48.880;8.328;2023-01-08T00:11:07;4.93;;;3.20;;
7031;SDS011;3557;48.880;8.328;2023-01-08T00:13:35;3.43;;;3.03;;
7031;SDS011;3557;48.880;8.328;2023-01-08T00:16:03;3.90;;;3.33;;
7031;SDS011;3557;48.880;8.328;2023-01-08T00:18:32;3.33;;;2.87;;
7031;SDS011;3557;48.880;8.328;2023-01-08T00:21:00;4.40;;;3.53;;
7031;SDS011;3557;48.880;8.328;2023-01-08T00:23:28;4.50;;;3.17;;
7031;SDS011;3557;48.880;8.328;2023-01-08T00:25:56;4.73;;;3.33;;
7031;SDS011;3557;48.880;8.328;2023-01-08T00:28:27;3.60;;;2.90;;
7031;SDS011;3557;48.880;8.328;2023-01-08T00:30:55;3.65;;;3.17;;
7031;SDS011;3557;48.880;8.328;2023-01-08T00:33:22;4.82;;;2.83;;
7031;SDS011;3557;48.880;8.328;2023-01-08T00:35:51;3.35;;;2.97;;
7031;SDS011;3557;48.880;8.328;2023-01-08T00:38:19;3.92;;;3.17;;
7031;SDS011;3557;48.880;8.328;2023-01-08T00:40:50;4.93;;;3.65;;
7031;SDS011;3557;48.880;8.328;2023-01-08T00:43:17;6.75;;;3.47;;
7031;SDS011;3557;48.880;8.328;2023-01-08T00:45:44;3.70;;;3.20;;
7031;SDS011;3557;48.880;8.328;2023-01-08T00:48:12;3.70;;;2.90;;
7031;SDS011;3557;48.880;8.328;2023-01-08T00:50:39;3.38;;;2.78;;
7031;SDS011;3557;48.880;8.328;2023-01-08T00:53:08;3.28;;;2.92;;
7031;SDS011;3557;48.880;8.328;2023-01-08T00:55:35;4.50;;;3.10;;
7031;SDS011;3557;48.880;8.328;2023-01-08T00:58:02;3.65;;;3.00;;
7031;SDS011;3557;48.880;8.328;2023-01-08T01:00:30;5.90;;;3.33;;
7031;SDS011;3557;48.880;8.328;2023-01-08T01:02:57;3.78;;;3.03;;
7031;SDS011;3557;48.880;8.328;2023-01-08T01:05:24;4.00;;;3.13;;
7031;SDS011;3557;48.880;8.328;2023-01-08T01:07:52;4.07;;;3.15;;
7031;SDS011;3557;48.880;8.328;2023-01-08T01:10:20;4.60;;;3.33;;
7031;SDS011;3557;48.880;8.328;2023-01-08T01:12:48;3.65;;;3.10;;
7031;SDS011;3557;48.880;8.328;2023-01-08T01:15:16;4.97;;;3.55;;
7031;SDS011;3557;48.880;8.328;2023-01-08T01:17:44;4.88;;;3.78;;
7031;SDS011;3557;48.880;8.328;2023-01-08T01:20:13;4.38;;;3.17;;
7031;SDS011;3557;48.880;8.328;2023-01-08T01:22:41;3.35;;;2.85;;
7031;SDS011;3557;48.880;8.328;2023-01-08T01:25:09;3.60;;;3.08;;
7031;SDS011;3557;48.880;8.328;2023-01-08T01:27:38;4.82;;;3.00;;
7031;SDS011;3557;48.880;8.328;2023-01-08T01:30:05;5.43;;;3.40;;
7031;SDS011;3557;48.880;8.328;2023-01-08T01:32:34;5.13;;;3.50;;
7031;SDS011;3557;48.880;8.328;2023-01-08T01:35:01;5.90;;;3.53;;
7031;SDS011;3557;48.880;8.328;2023-01-08T01:37:29;6.23;;;3.40;;
7031;SDS011;3557;48.880;8.328;2023-01-08T01:39:57;4.73;;;3.60;;
7031;SDS011;3557;48.880;8.328;2023-01-08T01:42:24;4.03;;;3.50;;
7031;SDS011;3557;48.880;8.328;2023-01-08T01:45:16;5.37;;;3.30;;
7031;SDS011;3557;48.880;8.328;2023-01-08T01:47:46;5.23;;;3.20;;
7031;SDS011;3557;48.880;8.328;2023-01-08T01:50:19;3.93;;;3.40;;
7031;SDS011;3557;48.880;8.328;2023-01-08T01:52:51;4.17;;;3.07;;
7031;SDS011;3557;48.880;8.328;2023-01-08T01:55:24;3.87;;;3.13;;
7031;SDS011;3557;48.880;8.328;2023-01-08T01:57:54;4.90;;;3.20;;
7031;SDS011;3557;48.880;8.328;2023-01-08T02:00:28;8.73;;;3.80;;
7031;SDS011;3557;48.880;8.328;2023-01-08T02:02:56;4.00;;;3.20;;
7031;SDS011;3557;48.880;8.328;2023-01-08T02:05:24;3.80;;;3.40;;
7031;SDS011;3557;48.880;8.328;2023-01-08T02:08:00;4.67;;;3.27;;
7031;SDS011;3557;48.880;8.328;2023-01-08T02:10:35;3.50;;;2.97;;
7031;SDS011;3557;48.880;8.328;2023-01-08T02:13:07;4.32;;;2.78;;
7031;SDS011;3557;48.880;8.328;2023-01-08T02:15:43;3.22;;;2.75;;
7031;SDS011;3557;48.880;8.328;2023-01-08T02:18:17;5.70;;;3.33;;
7031;SDS011;3557;48.880;8.328;2023-01-08T02:20:49;5.27;;;4.00;;
7031;SDS011;3557;48.880;8.328;2023-01-08T02:23:24;7.57;;;4.47;;
7031;SDS011;3557;48.880;8.328;2023-01-08T02:26:01;6.47;;;4.40;;
7031;SDS011;3557;48.880;8.328;2023-01-08T02:28:37;6.10;;;4.00;;
7031;SDS011;3557;48.880;8.328;2023-01-08T02:31:08;7.13;;;3.93;;
7031;SDS011;3557;48.880;8.328;2023-01-08T02:33:37;4.77;;;3.57;;
7031;SDS011;3557;48.880;8.328;2023-01-08T02:36:21;7.18;;;4.13;;
7031;SDS011;3557;48.880;8.328;2023-01-08T02:38:56;8.65;;;3.70;;
7031;SDS011;3557;48.880;8.328;2023-01-08T02:42:02;5.57;;;3.60;;
7031;SDS011;3557;48.880;8.328;2023-01-08T02:47:21;4.78;;;3.70;;
7031;SDS011;3557;48.880;8.328;2023-01-08T02:49:53;6.47;;;3.60;;
7031;SDS011;3557;48.880;8.328;2023-01-08T02:52:33;6.85;;;3.63;;
7031;SDS011;3557;48.880;8.328;2023-01-08T02:55:07;5.60;;;3.60;;
7031;SDS011;3557;48.880;8.328;2023-01-08T02:57:36;6.75;;;3.90;;
7031;SDS011;3557;48.880;8.328;2023-01-08T03:00:04;5.93;;;3.55;;
7031;SDS011;3557;48.880;8.328;2023-01-08T03:02:34;5.47;;;3.30;;
7031;SDS011;3557;48.880;8.328;2023-01-08T03:05:04;4.65;;;3.10;;
7031;SDS011;3557;48.880;8.328;2023-01-08T03:07:36;6.90;;;3.80;;
7031;SDS011;3557;48.880;8.328;2023-01-08T03:10:04;5.85;;;3.60;;
7031;SDS011;3557;48.880;8.328;2023-01-08T03:12:35;6.32;;;3.97;;
7031;SDS011;3557;48.880;8.328;2023-01-08T03:15:16;5.25;;;3.95;;
7031;SDS011;3557;48.880;8.328;2023-01-08T03:17:49;5.25;;;3.60;;
7031;SDS011;3557;48.880;8.328;2023-01-08T03:20:18;4.35;;;3.10;;
7031;SDS011;3557;48.880;8.328;2023-01-08T03:22:48;4.68;;;3.10;;
7031;SDS011;3557;48.880;8.328;2023-01-08T03:25:21;3.77;;;2.83;;
7031;SDS011;3557;48.880;8.328;2023-01-08T03:27:53;3.05;;;2.40;;
7031;SDS011;3557;48.880;8.328;2023-01-08T03:30:24;3.58;;;2.70;;
7031;SDS011;3557;48.880;8.328;2023-01-08T03:32:53;2.90;;;2.60;;
7031;SDS011;3557;48.880;8.328;2023-01-08T03:35:23;3.53;;;2.40;;
7031;SDS011;3557;48.880;8.328;2023-01-08T03:37:53;3.45;;;2.50;;
7031;SDS011;3557;48.880;8.328;2023-01-08T03:40:24;3.57;;;2.47;;
7031;SDS011;3557;48.880;8.328;2023-01-08T03:42:55;2.92;;;2.53;;
7031;SDS011;3557;48.880;8.328;2023-01-08T03:45:23;4.47;;;2.55;;
7031;SDS011;3557;48.880;8.328;2023-01-08T03:47:51;4.18;;;2.55;;
7031;SDS011;3557;48.880;8.328;2023-01-08T03:50:22;2.53;;;2.20;;
7031;SDS011;3557;48.880;8.328;2023-01-08T03:52:52;2.85;;;2.60;;
7031;SDS011;3557;48.880;8.328;2023-01-08T03:55:20;3.33;;;2.53;;
7031;SDS011;3557;48.880;8.328;2023-01-08T03:57:47;2.72;;;2.47;;
7031;SDS011;3557;48.880;8.328;2023-01-08T04:00:16;4.25;;;2.70;;
7031;SDS011;3557;48.880;8.328;2023-01-08T04:02:43;4.30;;;2.60;;
7031;SDS011;3557;48.880;8.328;2023-01-08T04:05:11;2.60;;;2.40;;
7031;SDS011;3557;48.880;8.328;2023-01-08T04:07:38;3.55;;;2.28;;
7031;SDS011;3557;48.880;8.328;2023-01-08T04:10:06;3.55;;;2.70;;
7031;SDS011;3557;48.880;8.328;2023-01-08T04:12:34;3.20;;;2.70;;
7031;SDS011;3557;48.880;8.328;2023-01-08T04:15:01;3.30;;;2.50;;
7031;SDS011;3557;48.880;8.328;2023-01-08T04:17:30;4.00;;;3.13;;
7031;SDS011;3557;48.880;8.328;2023-01-08T04:19:57;3.60;;;2.50;;
7031;SDS011;3557;48.880;8.328;2023-01-08T04:22:24;4.07;;;3.00;;
7031;SDS011;3557;48.880;8.328;2023-01-08T04:24:52;4.25;;;2.95;;
7031;SDS011;3557;48.880;8.328;2023-01-08T04:27:19;4.63;;;2.92;;
7031;SDS011;3557;48.880;8.328;2023-01-08T04:29:46;5.20;;;2.75;;
7031;SDS011;3557;48.880;8.328;2023-01-08T04:32:14;3.28;;;2.78;;
7031;SDS011;3557;48.880;8.328;2023-01-08T04:34:43;2.90;;;2.60;;
7031;SDS011;3557;48.880;8.328;2023-01-08T04:37:10;10.48;;;6.07;;
7031;SDS011;3557;48.880;8.328;2023-01-08T04:39:37;6.07;;;4.00;;
7031;SDS011;3557;48.880;8.328;2023-01-08T04:42:04;5.50;;;3.85;;
7031;SDS011;3557;48.880;8.328;2023-01-08T04:44:32;7.68;;;4.88;;
7031;SDS011;3557;48.880;8.328;2023-01-08T04:46:59;3.80;;;2.83;;
7031;SDS011;3557;48.880;8.328;2023-01-08T04:49:26;2.38;;;2.10;;
7031;SDS011;3557;48.880;8.328;2023-01-08T04:51:55;3.17;;;2.17;;
7031;SDS011;3557;48.880;8.328;2023-01-08T04:54:23;3.08;;;2.10;;
7031;SDS011;3557;48.880;8.328;2023-01-08T04:56:50;2.05;;;1.52;;
7031;SDS011;3557;48.880;8.328;2023-01-08T04:59:18;2.88;;;1.65;;
7031;SDS011;3557;48.880;8.328;2023-01-08T05:01:45;2.35;;;1.70;;
7031;SDS011;3557;48.880;8.328;2023-01-08T05:04:13;2.45;;;1.70;;
7031;SDS011;3557;48.880;8.328;2023-01-08T05:06:40;2.17;;;1.50;;
7031;SDS011;3557;48.880;8.328;2023-01-08T05:09:09;2.63;;;1.65;;
7031;SDS011;3557;48.880;8.328;2023-01-08T05:11:36;2.50;;;1.60;;
7031;SDS011;3557;48.880;8.328;2023-01-08T05:14:04;2.10;;;1.60;;
7031;SDS011;3557;48.880;8.328;2023-01-08T05:16:31;2.10;;;1.70;;
7031;SDS011;3557;48.880;8.328;2023-01-08T05:18:58;2.60;;;1.58;;
7031;SDS011;3557;48.880;8.328;2023-01-08T05:21:26;2.17;;;1.67;;
7031;SDS011;3557;48.880;8.328;2023-01-08T05:23:53;2.58;;;1.60;;
7031;SDS011;3557;48.880;8.328;2023-01-08T05:26:22;2.28;;;1.58;;
7031;SDS011;3557;48.880;8.328;2023-01-08T05:28:49;3.20;;;1.90;;
7031;SDS011;3557;48.880;8.328;2023-01-08T05:31:17;1.70;;;1.60;;
7031;SDS011;3557;48.880;8.328;2023-01-08T05:33:44;3.25;;;1.77;;
7031;SDS011;3557;48.880;8.328;2023-01-08T05:36:12;2.33;;;1.60;;
7031;SDS011;3557;48.880;8.328;2023-01-08T05:38:39;1.88;;;1.65;;
7031;SDS011;3557;48.880;8.328;2023-01-08T05:41:07;1.73;;;1.63;;
7031;SDS011;3557;48.880;8.328;2023-01-08T05:43:36;2.38;;;1.88;;
7031;SDS011;3557;48.880;8.328;2023-01-08T05:46:03;3.10;;;1.73;;
7031;SDS011;3557;48.880;8.328;2023-01-08T05:48:32;3.55;;;1.80;;
7031;SDS011;3557;48.880;8.328;2023-01-08T05:51:01;2.13;;;1.70;;
7031;SDS011;3557;48.880;8.328;2023-01-08T05:53:29;2.40;;;1.67;;
7031;SDS011;3557;48.880;8.328;2023-01-08T05:55:57;2.00;;;1.80;;
7031;SDS011;3557;48.880;8.328;2023-01-08T05:58:26;2.67;;;2.03;;
7031;SDS011;3557;48.880;8.328;2023-01-08T06:00:59;2.67;;;1.85;;
7031;SDS011;3557;48.880;8.328;2023-01-08T06:03:28;1.88;;;1.73;;
7031;SDS011;3557;48.880;8.328;2023-01-08T06:05:57;2.85;;;1.95;;
7031;SDS011;3557;48.880;8.328;2023-01-08T06:08:25;3.05;;;1.70;;
7031;SDS011;3557;48.880;8.328;2023-01-08T06:10:53;1.92;;;1.83;;
7031;SDS011;3557;48.880;8.328;2023-01-08T06:13:21;2.10;;;1.90;;
7031;SDS011;3557;48.880;8.328;2023-01-08T06:15:49;1.77;;;1.67;;
7031;SDS011;3557;48.880;8.328;2023-01-08T06:18:17;4.47;;;1.90;;
7031;SDS011;3557;48.880;8.328;2023-01-08T06:20:45;5.00;;;2.90;;
7031;SDS011;3557;48.880;8.328;2023-01-08T06:23:12;5.20;;;2.95;;
7031;SDS011;3557;48.880;8.328;2023-01-08T06:25:40;3.17;;;2.22;;
7031;SDS011;3557;48.880;8.328;2023-01-08T06:28:07;1.70;;;1.60;;
7031;SDS011;3557;48.880;8.328;2023-01-08T06:30:34;1.40;;;1.30;;
7031;SDS011;3557;48.880;8.328;2023-01-08T06:33:01;1.70;;;1.58;;
7031;SDS011;3557;48.880;8.328;2023-01-08T06:35:30;3.85;;;1.83;;
7031;SDS011;3557;48.880;8.328;2023-01-08T06:37:57;2.22;;;1.55;;
7031;SDS011;3557;48.880;8.328;2023-01-08T06:40:25;7.93;;;1.50;;
7031;SDS011;3557;48.880;8.328;2023-01-08T06:42:52;1.70;;;1.60;;
7031;SDS011;3557;48.880;8.328;2023-01-08T06:45:19;1.40;;;1.30;;
7031;SDS011;3557;48.880;8.328;2023-01-08T06:47:47;1.50;;;1.40;;
7031;SDS011;3557;48.880;8.328;2023-01-08T06:50:14;2.22;;;1.30;;
7031;SDS011;3557;48.880;8.328;2023-01-08T06:52:43;1.60;;;1.40;;
7031;SDS011;3557;48.880;8.328;2023-01-08T06:55:18;2.42;;;2.13;;
7031;SDS011;3557;48.880;8.328;2023-01-08T06:57:45;1.42;;;1.33;;
7031;SDS011;3557;48.880;8.328;2023-01-08T07:00:13;1.63;;;1.40;;
7031;SDS011;3557;48.880;8.328;2023-01-08T07:02:41;1.85;;;1.50;;
7031;SDS011;3557;48.880;8.328;2023-01-08T07:05:08;1.85;;;1.55;;
7031;SDS011;3557;48.880;8.328;2023-01-08T07:07:35;2.17;;;1.52;;
7031;SDS011;3557;48.880;8.328;2023-01-08T07:10:04;3.42;;;1.50;;
7031;SDS011;3557;48.880;8.328;2023-01-08T07:12:32;2.42;;;1.50;;
7031;SDS011;3557;48.880;8.328;2023-01-08T07:15:00;3.45;;;1.30;;
7031;SDS011;3557;48.880;8.328;2023-01-08T07:17:27;1.50;;;1.40;;
7031;SDS011;3557;48.880;8.328;2023-01-08T07:19:57;1.38;;;1.27;;
7031;SDS011;3557;48.880;8.328;2023-01-08T07:22:24;1.55;;;1.35;;
7031;SDS011;3557;48.880;8.328;2023-01-08T07:24:52;2.17;;;1.40;;
7031;SDS011;3557;48.880;8.328;2023-01-08T07:27:21;1.40;;;1.30;;
7031;SDS011;3557;48.880;8.328;2023-01-08T07:29:48;2.15;;;1.48;;
7031;SDS011;3557;48.880;8.328;2023-01-08T07:32:15;1.73;;;1.42;;
7031;SDS011;3557;48.880;8.328;2023-01-08T07:34:43;2.17;;;1.38;;
7031;SDS011;3557;48.880;8.328;2023-01-08T07:37:10;1.50;;;1.40;;
7031;SDS011;3557;48.880;8.328;2023-01-08T07:39:38;1.50;;;1.40;;
7031;SDS011;3557;48.880;8.328;2023-01-08T07:42:05;1.25;;;1.20;;
7031;SDS011;3557;48.880;8.328;2023-01-08T07:44:34;1.60;;;1.48;;
7031;SDS011;3557;48.880;8.328;2023-01-08T07:47:01;1.40;;;1.30;;
7031;SDS011;3557;48.880;8.328;2023-01-08T07:49:28;1.33;;;1.23;;
7031;SDS011;3557;48.880;8.328;2023-01-08T07:51:56;1.92;;;1.30;;
7031;SDS011;3557;48.880;8.328;2023-01-08T07:54:23;1.25;;;1.10;;
7031;SDS011;3557;48.880;8.328;2023-01-08T07:56:52;1.75;;;1.40;;
7031;SDS011;3557;48.880;8.328;2023-01-08T07:59:20;1.33;;;1.23;;
7031;SDS011;3557;48.880;8.328;2023-01-08T08:01:48;1.35;;;1.20;;
7031;SDS011;3557;48.880;8.328;2023-01-08T08:04:16;1.50;;;1.40;;
7031;SDS011;3557;48.880;8.328;2023-01-08T08:06:43;1.40;;;1.30;;
7031;SDS011;3557;48.880;8.328;2023-01-08T08:09:10;2.42;;;1.35;;
7031;SDS011;3557;48.880;8.328;2023-01-08T08:11:38;1.20;;;1.10;;
7031;SDS011;3557;48.880;8.328;2023-01-08T08:14:05;2.83;;;1.40;;
7031;SDS011;3557;48.880;8.328;2023-01-08T08:16:33;1.33;;;1.23;;
7031;SDS011;3557;48.880;8.328;2023-01-08T08:19:02;1.30;;;1.20;;
7031;SDS011;3557;48.880;8.328;2023-01-08T08:21:29;1.90;;;1.30;;
7031;SDS011;3557;48.880;8.328;2023-01-08T08:23:56;1.85;;;1.38;;
7031;SDS011;3557;48.880;8.328;2023-01-08T08:26:24;0.95;;;0.95;;
7031;SDS011;3557;48.880;8.328;2023-01-08T08:28:51;1.20;;;1.10;;
7031;SDS011;3557;48.880;8.328;2023-01-08T08:31:18;1.20;;;1.10;;
7031;SDS011;3557;48.880;8.328;2023-01-08T08:33:46;1.10;;;1.00;;
7031;SDS011;3557;48.880;8.328;2023-01-08T08:36:14;1.17;;;1.00;;
7031;SDS011;3557;48.880;8.328;2023-01-08T08:38:42;1.35;;;1.20;;
7031;SDS011;3557;48.880;8.328;2023-01-08T08:41:09;1.45;;;1.30;;
7031;SDS011;3557;48.880;8.328;2023-01-08T08:43:36;2.00;;;1.33;;
7031;SDS011;3557;48.880;8.328;2023-01-08T08:46:04;1.42;;;1.30;;
7031;SDS011;3557;48.880;8.328;2023-01-08T08:48:31;1.67;;;1.35;;
7031;SDS011;3557;48.880;8.328;2023-01-08T08:50:58;2.53;;;1.60;;
7031;SDS011;3557;48.880;8.328;2023-01-08T08:53:27;2.40;;;1.70;;
7031;SDS011;3557;48.880;8.328;2023-01-08T08:55:56;3.08;;;1.98;;
7031;SDS011;3557;48.880;8.328;2023-01-08T08:58:24;2.10;;;1.80;;
7031;SDS011;3557;48.880;8.328;2023-01-08T09:00:51;2.45;;;2.08;;
7031;SDS011;3557;48.880;8.328;2023-01-08T09:03:18;2.40;;;1.80;;
7031;SDS011;3557;48.880;8.328;2023-01-08T09:05:46;2.40;;;2.20;;
7031;SDS011;3557;48.880;8.328;2023-01-08T09:08:13;2.50;;;2.20;;
7031;SDS011;3557;48.880;8.328;2023-01-08T09:10:42;3.45;;;2.00;;
7031;SDS011;3557;48.880;8.328;2023-01-08T09:13:09;3.92;;;2.70;;
7031;SDS011;3557;48.880;8.328;2023-01-08T09:15:37;2.40;;;2.20;;
7031;SDS011;3557;48.880;8.328;2023-01-08T09:18:04;2.92;;;2.20;;
7031;SDS011;3557;48.880;8.328;2023-01-08T09:20:32;3.65;;;3.20;;
7031;SDS011;3557;48.880;8.328;2023-01-08T09:22:59;3.25;;;2.65;;
7031;SDS011;3557;48.880;8.328;2023-01-08T09:25:28;4.15;;;2.47;;
7031;SDS011;3557;48.880;8.328;2023-01-08T09:28:00;4.70;;;2.63;;
7031;SDS011;3557;48.880;8.328;2023-01-08T09:30:29;2.55;;;2.25;;
7031;SDS011;3557;48.880;8.328;2023-01-08T09:32:56;2.72;;;2.20;;
7031;SDS011;3557;48.880;8.328;2023-01-08T09:35:24;4.15;;;2.97;;
7031;SDS011;3557;48.880;8.328;2023-01-08T09:37:52;3.53;;;2.50;;
7031;SDS011;3557;48.880;8.328;2023-01-08T09:40:20;3.50;;;3.00;;
7031;SDS011;3557;48.880;8.328;2023-01-08T09:42:52;3.42;;;2.60;;
7031;SDS011;3557;48.880;8.328;2023-01-08T09:45:23;4.45;;;3.55;;
7031;SDS011;3557;48.880;8.328;2023-01-08T09:47:53;5.20;;;3.22;;
7031;SDS011;3557;48.880;8.328;2023-01-08T09:50:21;4.18;;;2.40;;
7031;SDS011;3557;48.880;8.328;2023-01-08T09:52:50;4.22;;;2.42;;
7031;SDS011;3557;48.880;8.328;2023-01-08T09:55:17;2.95;;;2.63;;
7031;SDS011;3557;48.880;8.328;2023-01-08T09:57:45;2.05;;;1.85;;
7031;SDS011;3557;48.880;8.328;2023-01-08T10:00:13;1.92;;;1.80;;
7031;SDS011;3557;48.880;8.328;2023-01-08T10:02:44;3.00;;;1.80;;
7031;SDS011;3557;48.880;8.328;2023-01-08T10:05:13;2.35;;;1.85;;
7031;SDS011;3557;48.880;8.328;2023-01-08T10:07:42;2.13;;;1.92;;
7031;SDS011;3557;48.880;8.328;2023-01-08T10:10:15;1.50;;;1.40;;
7031;SDS011;3557;48.880;8.328;2023-01-08T10:12:45;1.67;;;1.50;;
7031;SDS011;3557;48.880;8.328;2023-01-08T10:15:13;1.65;;;1.55;;
7031;SDS011;3557;48.880;8.328;2023-01-08T10:17:46;2.03;;;1.30;;
7031;SDS011;3557;48.880;8.328;2023-01-08T10:20:17;1.38;;;1.27;;
7031;SDS011;3557;48.880;8.328;2023-01-08T10:22:47;1.50;;;1.40;;
7031;SDS011;3557;48.880;8.328;2023-01-08T10:25:19;1.83;;;1.30;;
7031;SDS011;3557;48.880;8.328;2023-01-08T10:27:49;1.52;;;1.30;;
7031;SDS011;3557;48.880;8.328;2023-01-08T10:30:18;2.70;;;1.33;;
7031;SDS011;3557;48.880;8.328;2023-01-08T10:32:51;2.05;;;1.35;;
7031;SDS011;3557;48.880;8.328;2023-01-08T10:35:21;2.45;;;1.80;;
7031;SDS011;3557;48.880;8.328;2023-01-08T10:37:54;2.83;;;1.60;;
7031;SDS011;3557;48.880;8.328;2023-01-08T10:40:23;1.35;;;1.25;;
7031;SDS011;3557;48.880;8.328;2023-01-08T10:42:54;1.42;;;1.30;;
7031;SDS011;3557;48.880;8.328;2023-01-08T10:45:24;2.45;;;1.80;;
7031;SDS011;3557;48.880;8.328;2023-01-08T10:47:56;2.75;;;1.40;;
7031;SDS011;3557;48.880;8.328;2023-01-08T10:50:27;2.33;;;1.42;;
7031;SDS011;3557;48.880;8.328;2023-01-08T10:52:56;2.63;;;1.92;;
7031;SDS011;3557;48.880;8.328;2023-01-08T10:55:26;1.38;;;1.27;;
7031;SDS011;3557;48.880;8.328;2023-01-08T10:57:56;2.10;;;1.30;;
7031;SDS011;3557;48.880;8.328;2023-01-08T11:00:26;1.38;;;1.27;;
7031;SDS011;3557;48.880;8.328;2023-01-08T11:02:58;1.40;;;1.30;;
7031;SDS011;3557;48.880;8.328;2023-01-08T11:05:28;1.75;;;1.50;;
7031;SDS011;3557;48.880;8.328;2023-01-08T11:07:57;1.38;;;1.27;;
7031;SDS011;3557;48.880;8.328;2023-01-08T11:10:27;1.02;;;1.02;;
7031;SDS011;3557;48.880;8.328;2023-01-08T11:12:55;1.50;;;1.33;;
7031;SDS011;3557;48.880;8.328;2023-01-08T11:15:29;2.42;;;1.38;;
7031;SDS011;3557;48.880;8.328;2023-01-08T11:18:09;1.65;;;1.40;;
7031;SDS011;3557;48.880;8.328;2023-01-08T11:20:42;1.38;;;1.25;;
7031;SDS011;3557;48.880;8.328;2023-01-08T11:23:13;1.42;;;1.23;;
7031;SDS011;3557;48.880;8.328;2023-01-08T11:25:46;1.60;;;1.30;;
7031;SDS011;3557;48.880;8.328;2023-01-08T11:28:20;1.30;;;1.20;;
7031;SDS011;3557;48.880;8.328;2023-01-08T11:30:58;1.95;;;1.00;;
7031;SDS011;3557;48.880;8.328;2023-01-08T11:33:34;1.30;;;1.20;;
7031;SDS011;3557;48.880;8.328;2023-01-08T11:36:09;0.90;;;0.90;;
7031;SDS011;3557;48.880;8.328;2023-01-08T11:38:43;1.10;;;1.00;;
7031;SDS011;3557;48.880;8.328;2023-01-08T11:41:17;1.60;;;1.00;;
7031;SDS011;3557;48.880;8.328;2023-01-08T11:44:08;1.58;;;1.05;;
7031;SDS011;3557;48.880;8.328;2023-01-08T11:46:48;1.50;;;1.40;;
7031;SDS011;3557;48.880;8.328;2023-01-08T11:49:29;1.63;;;1.45;;
7031;SDS011;3557;48.880;8.328;2023-01-08T11:52:15;2.20;;;1.80;;
7031;SDS011;3557;48.880;8.328;2023-01-08T11:55:12;4.00;;;2.95;;
7031;SDS011;3557;48.880;8.328;2023-01-08T11:57:58;2.95;;;2.50;;
7031;SDS011;3557;48.880;8.328;2023-01-08T12:00:57;1.40;;;1.30;;
7031;SDS011;3557;48.880;8.328;2023-01-08T12:03:34;2.20;;;2.00;;
7031;SDS011;3557;48.880;8.328;2023-01-08T12:06:10;1.33;;;1.23;;
7031;SDS011;3557;48.880;8.328;2023-01-08T12:08:48;0.95;;;0.93;;
7031;SDS011;3557;48.880;8.328;2023-01-08T12:11:23;1.20;;;1.05;;
7031;SDS011;3557;48.880;8.328;2023-01-08T12:14:00;1.15;;;1.00;;
7031;SDS011;3557;48.880;8.328;2023-01-08T12:16:46;1.25;;;1.15;;
7031;SDS011;3557;48.880;8.328;2023-01-08T12:19:30;1.30;;;1.20;;
7031;SDS011;3557;48.880;8.328;2023-01-08T12:22:24;1.23;;;1.00;;
7031;SDS011;3557;48.880;8.328;2023-01-08T12:28:01;1.15;;;1.05;;
7031;SDS011;3557;48.880;8.328;2023-01-08T12:30:46;1.00;;;0.90;;
7031;SDS011;3557;48.880;8.328;2023-01-08T12:33:37;1.92;;;1.52;;
7031;SDS011;3557;48.880;8.328;2023-01-08T12:36:08;2.78;;;2.30;;
7031;SDS011;3557;48.880;8.328;2023-01-08T12:38:40;1.63;;;1.30;;
7031;SDS011;3557;48.880;8.328;2023-01-08T12:41:12;1.30;;;1.20;;
7031;SDS011;3557;48.880;8.328;2023-01-08T12:43:44;1.65;;;1.50;;
7031;SDS011;3557;48.880;8.328;2023-01-08T12:46:16;2.63;;;2.10;;
7031;SDS011;3557;48.880;8.328;2023-01-08T12:48:45;2.13;;;1.40;;
7031;SDS011;3557;48.880;8.328;2023-01-08T12:51:16;2.30;;;1.73;;
7031;SDS011;3557;48.880;8.328;2023-01-08T12:53:52;4.57;;;1.90;;
7031;SDS011;3557;48.880;8.328;2023-01-08T12:56:25;2.97;;;2.05;;
7031;SDS011;3557;48.880;8.328;2023-01-08T12:59:06;1.25;;;1.20;;
7031;SDS011;3557;48.880;8.328;2023-01-08T13:01:44;1.77;;;1.40;;
7031;SDS011;3557;48.880;8.328;2023-01-08T13:04:15;10.00;;;5.55;;
7031;SDS011;3557;48.880;8.328;2023-01-08T13:06:50;1.27;;;1.17;;
7031;SDS011;3557;48.880;8.328;2023-01-08T13:09:23;0.68;;;0.63;;
7031;SDS011;3557;48.880;8.328;2023-01-08T13:11:52;0.98;;;0.98;;
7031;SDS011;3557;48.880;8.328;2023-01-08T13:14:21;0.60;;;0.60;;
7031;SDS011;3557;48.880;8.328;2023-01-08T13:16:59;0.63;;;0.63;;
7031;SDS011;3557;48.880;8.328;2023-01-08T13:19:36;0.60;;;0.60;;
7031;SDS011;3557;48.880;8.328;2023-01-08T13:22:14;1.02;;;0.75;;
7031;SDS011;3557;48.880;8.328;2023-01-08T13:24:51;0.40;;;0.40;;
7031;SDS011;3557;48.880;8.328;2023-01-08T13:27:35;0.60;;;0.60;;
7031;SDS011;3557;48.880;8.328;2023-01-08T13:30:02;0.38;;;0.38;;
7031;SDS011;3557;48.880;8.328;2023-01-08T13:33:35;0.57;;;0.57;;
7031;SDS011;3557;48.880;8.328;2023-01-08T13:36:12;1.58;;;0.57;;
7031;SDS011;3557;48.880;8.328;2023-01-08T13:39:01;0.43;;;0.43;;
7031;SDS011;3557;48.880;8.328;2023-01-08T13:41:33;0.50;;;0.50;;
7031;SDS011;3557;48.880;8.328;2023-01-08T13:44:04;0.52;;;0.52;;
7031;SDS011;3557;48.880;8.328;2023-01-08T13:46:39;0.43;;;0.43;;
7031;SDS011;3557;48.880;8.328;2023-01-08T13:49:08;0.60;;;0.60;;
7031;SDS011;3557;48.880;8.328;2023-01-08T13:51:44;0.40;;;0.40;;
7031;SDS011;3557;48.880;8.328;2023-01-08T13:54:14;0.38;;;0.38;;
7031;SDS011;3557;48.880;8.328;2023-01-08T13:56:50;0.60;;;0.60;;
7031;SDS011;3557;48.880;8.328;2023-01-08T13:59:26;0.40;;;0.40;;
7031;SDS011;3557;48.880;8.328;2023-01-08T14:02:20;0.52;;;0.52;;
7031;SDS011;3557;48.880;8.328;2023-01-08T14:04:50;0.80;;;0.80;;
7031;SDS011;3557;48.880;8.328;2023-01-08T14:07:18;0.80;;;0.80;;
7031;SDS011;3557;48.880;8.328;2023-01-08T14:09:47;0.47;;;0.47;;
7031;SDS011;3557;48.880;8.328;2023-01-08T14:12:17;0.77;;;0.57;;
7031;SDS011;3557;48.880;8.328;2023-01-08T14:14:47;0.45;;;0.40;;
7031;SDS011;3557;48.880;8.328;2023-01-08T14:17:17;0.65;;;0.65;;
7031;SDS011;3557;48.880;8.328;2023-01-08T14:19:48;1.13;;;1.00;;
7031;SDS011;3557;48.880;8.328;2023-01-08T14:22:16;0.65;;;0.65;;
7031;SDS011;3557;48.880;8.328;2023-01-08T14:24:47;1.10;;;0.80;;
7031;SDS011;3557;48.880;8.328;2023-01-08T14:27:23;0.47;;;0.47;;
7031;SDS011;3557;48.880;8.328;2023-01-08T14:29:53;0.60;;;0.60;;
7031;SDS011;3557;48.880;8.328;2023-01-08T14:32:21;0.90;;;0.55;;
7031;SDS011;3557;48.880;8.328;2023-01-08T14:34:52;0.60;;;0.60;;
7031;SDS011;3557;48.880;8.328;2023-01-08T14:37:21;0.60;;;0.60;;
7031;SDS011;3557;48.880;8.328;2023-01-08T14:39:48;0.50;;;0.50;;
7031;SDS011;3557;48.880;8.328;2023-01-08T14:42:17;0.60;;;0.60;;
7031;SDS011;3557;48.880;8.328;2023-01-08T14:45:06;2.25;;;1.40;;
7031;SDS011;3557;48.880;8.328;2023-01-08T14:47:42;0.82;;;0.80;;
7031;SDS011;3557;48.880;8.328;2023-01-08T14:50:19;0.70;;;0.70;;
7031;SDS011;3557;48.880;8.328;2023-01-08T14:52:50;0.70;;;0.70;;
7031;SDS011;3557;48.880;8.328;2023-01-08T14:55:20;0.80;;;0.80;;
7031;SDS011;3557;48.880;8.328;2023-01-08T14:57:48;2.92;;;2.42;;
7031;SDS011;3557;48.880;8.328;2023-01-08T15:00:20;1.20;;;1.10;;
7031;SDS011;3557;48.880;8.328;2023-01-08T15:02:50;0.98;;;0.75;;
7031;SDS011;3557;48.880;8.328;2023-01-08T15:05:18;3.15;;;2.47;;
7031;SDS011;3557;48.880;8.328;2023-01-08T15:07:53;4.22;;;2.85;;
7031;SDS011;3557;48.880;8.328;2023-01-08T15:13:20;8.75;;;5.18;;
7031;SDS011;3557;48.880;8.328;2023-01-08T15:15:54;8.57;;;5.35;;
7031;SDS011;3557;48.880;8.328;2023-01-08T15:18:23;18.27;;;9.45;;
7031;SDS011;3557;48.880;8.328;2023-01-08T15:20:51;9.20;;;6.63;;
7031;SDS011;3557;48.880;8.328;2023-01-08T15:23:23;6.78;;;4.63;;
7031;SDS011;3557;48.880;8.328;2023-01-08T15:25:53;7.72;;;4.93;;
7031;SDS011;3557;48.880;8.328;2023-01-08T15:28:21;8.98;;;5.40;;
7031;SDS011;3557;48.880;8.328;2023-01-08T15:30:50;12.07;;;8.02;;
7031;SDS011;3557;48.880;8.328;2023-01-08T15:33:20;12.68;;;8.57;;
7031;SDS011;3557;48.880;8.328;2023-01-08T15:35:49;9.95;;;6.70;;
7031;SDS011;3557;48.880;8.328;2023-01-08T15:38:17;2.35;;;1.67;;
7031;SDS011;3557;48.880;8.328;2023-01-08T15:40:48;2.15;;;1.80;;
7031;SDS011;3557;48.880;8.328;2023-01-08T15:43:17;1.95;;;1.52;;
7031;SDS011;3557;48.880;8.328;2023-01-08T15:45:44;2.47;;;2.03;;